San Isidro, Argentina
Current Conditions -  °F | °C
As of 7:00 AM on Sunday 21 Dec 2014 (Local Time) from SANT Reporting Station
Drizzle Drizzle  
Wind Chill: 17°   Ceiling: 800
Heat Index: 17°   Visibility: 1.8mi
Dew Point: 16°   Wind: 18mph
Humidity: 94%   Direction: 180°S
Pressure: 29.91"   Gusts: NA
Location:  28.45°S, 65.73°W
Report Text: SANT 211000Z 18016KT 3000 DZ BKN008 OVC03517/16 Q1013
Loading
Personal Weather Stations






























Interactive Weather Map New forecast layout! Learn more

10-Day Weather Forecast

Advertisements
Track Severe Weather on mobile